Time;durP1;ratioP1;P1;durP2;ratioP2;P2;SDS_P1;SDS_P2;PMS_P1;PMS_P2;Temp;Humidity;BMP_temperature;BMP_pressure;BME280_temperature;BME280_humidity;BME280_pressure;Samples;Min_cycle;Max_cycle;Signal;HPM_P1;HPM_P2
2022/04/15 00:00:33;;;;;;;10.33;9.23;;;;;;;;;;5074817;28;25091;-54
2022/04/15 00:02:58;;;;;;;10.98;9.88;;;;;;;;;;5063561;28;24418;-54
2022/04/15 00:05:40;;;;;;;10.95;9.80;;;;;;;;;;5072883;28;24415;-54
2022/04/15 00:08:12;;;;;;;11.18;10.07;;;;;;;;;;5077724;28;24514;-54
2022/04/15 00:10:45;;;;;;;11.05;9.93;;;;;;;;;;5066154;28;24429;-54
2022/04/15 00:13:12;;;;;;;11.30;10.20;;;;;;;;;;5072081;28;24414;-55
2022/04/15 00:15:37;;;;;;;12.60;11.40;;;;;;;;;;5067986;28;24426;-54
2022/04/15 00:18:02;;;;;;;12.90;11.50;;;;;;;;;;5070639;28;24498;-54
2022/04/15 00:20:28;;;;;;;12.27;11.07;;;;;;;;;;5078461;28;24446;-55
2022/04/15 00:22:53;;;;;;;12.10;10.90;;;;;;;;;;5083544;28;24418;-54
2022/04/15 00:25:18;;;;;;;12.20;11.00;;;;;;;;;;5086129;28;24446;-54
2022/04/15 00:27:43;;;;;;;12.33;11.13;;;;;;;;;;5084513;28;24464;-53
2022/04/15 00:30:09;;;;;;;12.17;10.97;;;;;;;;;;5074967;28;24481;-53
2022/04/15 00:32:35;;;;;;;12.33;11.13;;;;;;;;;;5074049;28;25055;-54
2022/04/15 00:35:00;;;;;;;13.20;11.80;;;;;;;;;;5064649;28;24573;-54
2022/04/15 00:37:25;;;;;;;12.43;11.23;;;;;;;;;;5067035;28;24413;-54
2022/04/15 00:39:51;;;;;;;12.43;11.13;;;;;;;;;;5068603;28;24417;-53
2022/04/15 00:42:16;;;;;;;11.60;10.40;;;;;;;;;;5079342;28;24422;-53
2022/04/15 00:44:42;;;;;;;11.90;10.80;;;;;;;;;;5080360;28;24518;-53
2022/04/15 00:47:08;;;;;;;11.95;10.85;;;;;;;;;;5070437;28;24662;-53
2022/04/15 00:49:34;;;;;;;12.75;11.45;;;;;;;;;;5070364;28;24422;-53
2022/04/15 00:51:59;;;;;;;12.50;11.30;;;;;;;;;;5069158;28;24785;-53
2022/04/15 00:54:29;;;;;;;13.00;11.80;;;;;;;;;;5071139;28;24716;-53
2022/04/15 00:56:55;;;;;;;12.55;11.45;;;;;;;;;;5070267;28;24465;-52
2022/04/15 00:59:21;;;;;;;11.95;10.95;;;;;;;;;;5070586;28;24418;-53
2022/04/15 01:01:46;;;;;;;12.63;11.32;;;;;;;;;;5077606;28;24842;-53
2022/04/15 01:04:12;;;;;;;12.70;11.50;;;;;;;;;;5092403;28;24494;-53
2022/04/15 01:06:38;;;;;;;16.80;15.00;;;;;;;;;;5087892;28;24414;-54
2022/04/15 01:09:03;;;;;;;14.13;12.70;;;;;;;;;;5078093;28;24467;-53
2022/04/15 01:11:30;;;;;;;13.40;12.20;;;;;;;;;;5074258;28;24437;-53
2022/04/15 01:13:57;;;;;;;14.93;13.43;;;;;;;;;;5075633;28;24418;-54
2022/04/15 01:16:23;;;;;;;13.27;12.02;;;;;;;;;;5077019;28;24455;-52
2022/04/15 01:18:48;;;;;;;13.35;11.95;;;;;;;;;;5089877;28;25027;-53
2022/04/15 01:21:14;;;;;;;13.50;12.30;;;;;;;;;;5070716;28;24430;-52
2022/04/15 01:23:39;;;;;;;14.10;12.60;;;;;;;;;;5081539;28;24425;-54
2022/04/15 01:26:04;;;;;;;13.77;12.47;;;;;;;;;;5079158;28;24414;-54
2022/04/15 01:28:30;;;;;;;14.50;13.00;;;;;;;;;;5082471;28;24417;-54
2022/04/15 01:30:55;;;;;;;12.97;11.60;;;;;;;;;;5076368;28;24542;-55
2022/04/15 01:33:20;;;;;;;13.40;12.10;;;;;;;;;;5077522;28;25187;-53
2022/04/15 01:35:45;;;;;;;13.57;12.18;;;;;;;;;;5077120;28;24489;-54
2022/04/15 01:38:14;;;;;;;13.37;11.90;;;;;;;;;;5087032;28;24502;-54
2022/04/15 01:40:39;;;;;;;15.27;13.10;;;;;;;;;;5069518;28;24497;-54
2022/04/15 01:43:04;;;;;;;14.10;12.60;;;;;;;;;;5088815;28;24497;-54
2022/04/15 01:45:30;;;;;;;14.98;13.48;;;;;;;;;;5079726;28;24498;-54
2022/04/15 01:47:55;;;;;;;15.50;13.87;;;;;;;;;;5067073;28;24769;-54
2022/04/15 01:50:20;;;;;;;14.60;13.10;;;;;;;;;;5075464;28;24433;-54
2022/04/15 01:52:45;;;;;;;14.87;13.20;;;;;;;;;;5078633;28;24730;-53
2022/04/15 01:55:10;;;;;;;16.90;15.20;;;;;;;;;;5071498;28;24426;-53
2022/04/15 01:57:35;;;;;;;16.20;14.60;;;;;;;;;;5068749;28;24452;-54
2022/04/15 02:00:01;;;;;;;15.85;14.10;;;;;;;;;;5076849;28;25009;-53
2022/04/15 02:02:26;;;;;;;15.57;13.90;;;;;;;;;;5084373;28;24438;-53
2022/04/15 02:04:51;;;;;;;15.75;14.25;;;;;;;;;;5075886;28;24434;-54
2022/04/15 02:07:16;;;;;;;15.15;13.63;;;;;;;;;;5070406;28;24813;-54
2022/04/15 02:09:42;;;;;;;15.93;14.32;;;;;;;;;;5068837;28;24423;-54
2022/04/15 02:12:07;;;;;;;15.77;14.10;;;;;;;;;;5068320;28;24455;-54
2022/04/15 02:14:32;;;;;;;16.60;14.90;;;;;;;;;;5068870;28;24423;-54
2022/04/15 02:16:58;;;;;;;15.60;14.10;;;;;;;;;;5067602;28;24492;-53
2022/04/15 02:19:23;;;;;;;15.93;14.23;;;;;;;;;;5065682;28;24446;-54
2022/04/15 02:21:49;;;;;;;16.12;14.52;;;;;;;;;;5068381;28;24507;-54
2022/04/15 02:24:14;;;;;;;16.30;14.60;;;;;;;;;;5068159;28;24418;-52
2022/04/15 02:26:40;;;;;;;18.45;15.68;;;;;;;;;;5072211;28;24493;-53
2022/04/15 02:29:05;;;;;;;17.73;15.87;;;;;;;;;;5081669;28;24453;-52
2022/04/15 02:31:30;;;;;;;16.83;15.03;;;;;;;;;;5082031;28;25261;-51
2022/04/15 02:33:55;;;;;;;17.40;15.48;;;;;;;;;;5077885;28;24991;-53
2022/04/15 02:36:20;;;;;;;19.30;16.10;;;;;;;;;;5069420;28;24432;-54
2022/04/15 02:38:46;;;;;;;16.45;14.75;;;;;;;;;;5078452;28;24786;-54
2022/04/15 02:41:11;;;;;;;18.90;16.73;;;;;;;;;;5083337;28;24414;-53
2022/04/15 02:43:37;;;;;;;17.43;15.53;;;;;;;;;;5068644;28;24491;-54
2022/04/15 02:46:03;;;;;;;21.40;17.52;;;;;;;;;;5069753;28;24629;-54
2022/04/15 02:48:29;;;;;;;18.47;16.47;;;;;;;;;;5077175;28;24545;-54
2022/04/15 02:50:54;;;;;;;23.90;19.50;;;;;;;;;;5087688;28;24422;-54
2022/04/15 02:53:19;;;;;;;20.75;17.88;;;;;;;;;;5086363;28;24406;-54
2022/04/15 02:55:44;;;;;;;20.60;17.83;;;;;;;;;;5081831;28;25035;-54
2022/04/15 02:58:10;;;;;;;25.63;21.17;;;;;;;;;;5069359;28;24423;-53
2022/04/15 03:00:35;;;;;;;24.20;20.27;;;;;;;;;;5077119;28;24967;-53
2022/04/15 03:03:00;;;;;;;21.90;18.30;;;;;;;;;;5073619;28;24463;-53
2022/04/15 03:05:25;;;;;;;20.38;18.17;;;;;;;;;;5072926;28;24544;-54
2022/04/15 03:07:50;;;;;;;20.77;18.13;;;;;;;;;;5082065;28;24512;-52
2022/04/15 03:10:15;;;;;;;22.20;18.60;;;;;;;;;;5077381;28;24414;-53
2022/04/15 03:12:41;;;;;;;21.40;17.98;;;;;;;;;;5082359;28;24450;-52
2022/04/15 03:15:09;;;;;;;22.30;18.85;;;;;;;;;;5079190;28;24765;-53
2022/04/15 03:17:34;;;;;;;22.45;18.83;;;;;;;;;;5079433;28;24967;-53
2022/04/15 03:20:02;;;;;;;23.10;19.10;;;;;;;;;;5073061;28;24443;-53
2022/04/15 03:22:28;;;;;;;26.17;21.70;;;;;;;;;;5087492;28;25146;-53
2022/04/15 03:24:53;;;;;;;25.40;21.57;;;;;;;;;;5085238;28;25027;-53
2022/04/15 03:27:18;;;;;;;22.10;19.33;;;;;;;;;;5071547;28;24419;-53
2022/04/15 03:29:43;;;;;;;24.58;21.20;;;;;;;;;;5079166;28;24460;-52
2022/04/15 03:32:09;;;;;;;24.07;20.73;;;;;;;;;;5072303;28;24955;-53
2022/04/15 03:34:34;;;;;;;23.55;20.92;;;;;;;;;;5076647;28;24464;-54
2022/04/15 03:36:59;;;;;;;22.30;19.20;;;;;;;;;;5069247;28;24419;-54
2022/04/15 03:39:24;;;;;;;25.73;21.70;;;;;;;;;;5072193;28;24465;-53
2022/04/15 03:41:49;;;;;;;21.75;19.35;;;;;;;;;;5070087;28;24981;-52
2022/04/15 03:44:14;;;;;;;21.35;19.15;;;;;;;;;;5063795;28;24419;-54
2022/04/15 03:46:40;;;;;;;24.60;21.40;;;;;;;;;;5066884;28;24575;-53
2022/04/15 03:49:05;;;;;;;22.50;19.67;;;;;;;;;;5069564;28;24758;-54
2022/04/15 03:51:30;;;;;;;24.50;21.80;;;;;;;;;;5065055;28;24438;-53
2022/04/15 03:53:55;;;;;;;22.50;19.98;;;;;;;;;;5071135;28;24511;-54
2022/04/15 03:56:21;;;;;;;24.48;20.58;;;;;;;;;;5080299;28;24473;-54
2022/04/15 03:58:46;;;;;;;26.27;21.33;;;;;;;;;;5082313;28;24997;-53
2022/04/15 04:01:11;;;;;;;28.40;23.23;;;;;;;;;;5071768;28;24520;-54
2022/04/15 04:03:36;;;;;;;25.48;21.33;;;;;;;;;;5079041;28;24423;-54
2022/04/15 04:06:01;;;;;;;23.48;20.55;;;;;;;;;;5073700;28;24988;-54
2022/04/15 04:08:26;;;;;;;29.23;23.95;;;;;;;;;;5066602;28;24415;-54
2022/04/15 04:10:52;;;;;;;25.80;21.80;;;;;;;;;;5072880;28;24426;-54
2022/04/15 04:13:17;;;;;;;23.67;20.55;;;;;;;;;;5070326;28;25384;-54
2022/04/15 04:15:42;;;;;;;24.42;20.90;;;;;;;;;;5066017;28;24414;-54
2022/04/15 04:18:07;;;;;;;26.05;21.92;;;;;;;;;;5074737;28;24428;-54
2022/04/15 04:20:32;;;;;;;26.60;22.23;;;;;;;;;;5085416;28;25104;-54
2022/04/15 04:22:58;;;;;;;26.43;22.17;;;;;;;;;;5069265;28;24969;-54
2022/04/15 04:25:23;;;;;;;24.63;21.73;;;;;;;;;;5077702;28;24636;-54
2022/04/15 04:27:48;;;;;;;25.30;21.50;;;;;;;;;;5083620;28;24433;-54
2022/04/15 04:30:14;;;;;;;24.45;21.38;;;;;;;;;;5089843;28;24793;-54
2022/04/15 04:32:40;;;;;;;25.33;21.35;;;;;;;;;;5071803;28;24532;-54
2022/04/15 04:35:06;;;;;;;26.20;22.80;;;;;;;;;;5084098;28;24415;-54
2022/04/15 04:37:31;;;;;;;24.55;21.88;;;;;;;;;;5080172;28;24472;-53
2022/04/15 04:39:56;;;;;;;26.13;22.10;;;;;;;;;;5078278;28;24503;-54
2022/04/15 04:42:21;;;;;;;25.55;22.77;;;;;;;;;;5075437;28;24521;-53
2022/04/15 04:44:47;;;;;;;27.48;23.55;;;;;;;;;;5075653;28;24987;-53
2022/04/15 04:47:12;;;;;;;27.27;24.10;;;;;;;;;;5075988;28;24422;-54
2022/04/15 04:49:37;;;;;;;30.60;24.80;;;;;;;;;;5084634;28;24903;-53
2022/04/15 04:52:03;;;;;;;27.97;24.87;;;;;;;;;;5074594;28;24521;-53
2022/04/15 04:54:29;;;;;;;27.75;24.70;;;;;;;;;;5076950;28;24426;-52
2022/04/15 04:56:54;;;;;;;31.75;27.25;;;;;;;;;;5074082;28;24395;-51
2022/04/15 04:59:22;;;;;;;29.93;26.17;;;;;;;;;;5069741;28;24415;-53
2022/04/15 05:01:47;;;;;;;29.45;25.02;;;;;;;;;;5077409;28;24915;-53
2022/04/15 05:04:12;;;;;;;34.23;29.03;;;;;;;;;;5073510;28;24481;-53
2022/04/15 05:06:37;;;;;;;34.25;29.27;;;;;;;;;;5075563;28;24444;-54
2022/04/15 05:09:02;;;;;;;33.28;29.67;;;;;;;;;;5074779;28;24429;-54
2022/04/15 05:11:27;;;;;;;31.83;26.90;;;;;;;;;;5086218;28;25070;-54
2022/04/15 05:13:53;;;;;;;37.67;31.17;;;;;;;;;;5078370;28;24781;-54
2022/04/15 05:16:18;;;;;;;36.88;31.08;;;;;;;;;;5070513;28;24548;-54
2022/04/15 05:18:43;;;;;;;33.47;28.30;;;;;;;;;;5073122;28;24457;-54
2022/04/15 05:21:08;;;;;;;37.10;31.43;;;;;;;;;;5069867;28;24722;-54
2022/04/15 05:23:34;;;;;;;33.10;29.13;;;;;;;;;;5083626;28;24715;-54
2022/04/15 05:25:59;;;;;;;31.90;28.53;;;;;;;;;;5077363;28;24868;-54
2022/04/15 05:28:24;;;;;;;36.45;29.13;;;;;;;;;;5075002;28;24429;-54
2022/04/15 05:30:49;;;;;;;36.75;31.35;;;;;;;;;;5081423;28;24576;-48
2022/04/15 05:33:14;;;;;;;37.57;31.80;;;;;;;;;;5076963;28;24406;-49
2022/04/15 05:35:39;;;;;;;35.77;31.90;;;;;;;;;;5079650;28;24505;-48
2022/04/15 05:38:07;;;;;;;35.20;30.88;;;;;;;;;;5076708;28;24953;-49
2022/04/15 05:40:32;;;;;;;31.45;28.15;;;;;;;;;;5075693;28;25036;-47
2022/04/15 05:42:57;;;;;;;33.60;30.10;;;;;;;;;;5078888;28;24521;-50
2022/04/15 05:45:22;;;;;;;31.77;28.13;;;;;;;;;;5069480;28;24430;-49
2022/04/15 05:47:48;;;;;;;32.30;28.70;;;;;;;;;;5070082;28;24780;-53
2022/04/15 05:50:13;;;;;;;33.53;29.20;;;;;;;;;;5077931;28;24498;-50
2022/04/15 05:52:38;;;;;;;32.13;28.13;;;;;;;;;;5073056;28;24794;-49
2022/04/15 05:55:03;;;;;;;32.63;29.00;;;;;;;;;;5076589;28;24426;-49
2022/04/15 05:57:28;;;;;;;29.58;26.38;;;;;;;;;;5068894;28;25029;-49
2022/04/15 05:59:54;;;;;;;26.80;23.90;;;;;;;;;;5076706;28;24506;-49
2022/04/15 06:02:19;;;;;;;25.40;22.00;;;;;;;;;;5071213;28;24790;-49
2022/04/15 06:04:44;;;;;;;23.30;21.00;;;;;;;;;;5067124;28;25103;-48
2022/04/15 06:07:09;;;;;;;23.73;21.43;;;;;;;;;;5066964;28;24434;-47
2022/04/15 06:09:34;;;;;;;23.00;20.53;;;;;;;;;;5071654;28;24560;-46
2022/04/15 06:12:00;;;;;;;21.53;19.23;;;;;;;;;;5074390;28;24429;-46
2022/04/15 06:14:25;;;;;;;21.40;19.10;;;;;;;;;;5082838;28;24426;-46
2022/04/15 06:16:51;;;;;;;20.80;18.70;;;;;;;;;;5077788;28;25001;-46
2022/04/15 06:19:16;;;;;;;20.73;18.73;;;;;;;;;;5070108;28;24442;-46
2022/04/15 06:21:41;;;;;;;20.83;18.73;;;;;;;;;;5082864;28;24437;-46
2022/04/15 06:24:08;;;;;;;20.07;18.03;;;;;;;;;;5070664;28;24514;-46
2022/04/15 06:26:34;;;;;;;19.77;17.77;;;;;;;;;;5075984;28;24488;-46
2022/04/15 06:28:59;;;;;;;20.57;18.43;;;;;;;;;;5083777;28;24460;-46
2022/04/15 06:31:24;;;;;;;19.30;17.40;;;;;;;;;;5080632;28;24538;-47
2022/04/15 06:33:50;;;;;;;20.65;18.65;;;;;;;;;;5071357;28;24522;-46
2022/04/15 06:36:15;;;;;;;19.67;17.67;;;;;;;;;;5081404;28;24510;-47
2022/04/15 06:38:40;;;;;;;18.35;16.55;;;;;;;;;;5082312;28;24472;-48
2022/04/15 06:41:05;;;;;;;18.30;16.50;;;;;;;;;;5077628;28;24425;-47
2022/04/15 06:43:30;;;;;;;19.37;17.47;;;;;;;;;;5072743;28;24781;-47
2022/04/15 06:45:56;;;;;;;17.42;15.73;;;;;;;;;;5071038;28;24450;-47
2022/04/15 06:48:22;;;;;;;16.85;15.05;;;;;;;;;;5077733;28;24926;-46
2022/04/15 06:50:48;;;;;;;18.20;16.40;;;;;;;;;;5070666;28;25019;-46
2022/04/15 06:53:13;;;;;;;16.02;14.43;;;;;;;;;;5064460;28;24422;-47
2022/04/15 06:55:38;;;;;;;14.73;13.20;;;;;;;;;;5074404;28;24510;-46
2022/04/15 06:58:03;;;;;;;15.07;13.57;;;;;;;;;;5074426;28;24993;-47
2022/04/15 07:00:29;;;;;;;13.50;12.10;;;;;;;;;;5076481;28;24838;-46
2022/04/15 07:02:54;;;;;;;12.70;11.50;;;;;;;;;;5077137;28;25026;-47
2022/04/15 07:05:19;;;;;;;11.95;10.75;;;;;;;;;;5069386;28;25060;-46
2022/04/15 07:07:44;;;;;;;13.27;10.93;;;;;;;;;;5080853;28;25229;-46
2022/04/15 07:10:10;;;;;;;11.50;10.30;;;;;;;;;;5077393;28;25043;-46
2022/04/15 07:12:36;;;;;;;10.87;9.70;;;;;;;;;;5068717;28;24475;-46
2022/04/15 07:15:01;;;;;;;12.00;10.50;;;;;;;;;;5072617;28;24827;-46
2022/04/15 07:17:26;;;;;;;11.60;10.60;;;;;;;;;;5072462;28;24521;-46
2022/04/15 07:19:52;;;;;;;12.02;10.82;;;;;;;;;;5075878;28;25116;-46
2022/04/15 07:22:18;;;;;;;10.17;9.13;;;;;;;;;;5074088;28;24518;-47
2022/04/15 07:24:43;;;;;;;12.50;10.30;;;;;;;;;;5072999;28;24431;-46
2022/04/15 07:27:08;;;;;;;10.30;8.40;;;;;;;;;;5076112;28;25014;-46
2022/04/15 07:29:33;;;;;;;9.70;8.70;;;;;;;;;;5074380;28;24430;-46
2022/04/15 07:31:58;;;;;;;9.40;8.40;;;;;;;;;;5074728;28;24992;-46
2022/04/15 07:34:24;;;;;;;8.80;8.00;;;;;;;;;;5069731;28;24510;-46
2022/04/15 07:36:54;;;;;;;10.10;8.55;;;;;;;;;;5073251;28;24418;-46
2022/04/15 07:39:19;;;;;;;11.30;7.80;;;;;;;;;;5103189;28;24926;-46
2022/04/15 07:41:45;;;;;;;9.60;8.63;;;;;;;;;;5071608;28;24966;-46
2022/04/15 07:44:11;;;;;;;8.98;8.07;;;;;;;;;;5072253;28;24484;-46
2022/04/15 07:46:36;;;;;;;9.13;8.02;;;;;;;;;;5068894;28;24469;-46
2022/04/15 07:49:02;;;;;;;8.93;7.40;;;;;;;;;;5066638;28;24437;-45
2022/04/15 07:51:27;;;;;;;8.00;7.20;;;;;;;;;;5073240;28;24864;-46
2022/04/15 07:53:53;;;;;;;8.02;7.20;;;;;;;;;;5072495;28;24488;-47
2022/04/15 07:56:18;;;;;;;8.47;7.57;;;;;;;;;;5071101;28;24504;-47
2022/04/15 07:58:43;;;;;;;8.75;7.85;;;;;;;;;;5066846;28;24492;-46
2022/04/15 08:01:10;;;;;;;8.00;6.70;;;;;;;;;;5073292;28;24479;-46
2022/04/15 08:03:36;;;;;;;8.73;7.80;;;;;;;;;;5077922;28;24510;-46
2022/04/15 08:06:01;;;;;;;10.38;8.52;;;;;;;;;;5067700;28;24770;-47
2022/04/15 08:08:26;;;;;;;8.80;7.90;;;;;;;;;;5074941;28;24939;-46
2022/04/15 08:10:51;;;;;;;8.80;7.90;;;;;;;;;;5068645;28;24511;-46
2022/04/15 08:13:17;;;;;;;8.70;7.80;;;;;;;;;;5066010;28;24770;-46
2022/04/15 08:15:42;;;;;;;9.00;8.10;;;;;;;;;;5069046;28;25205;-46
2022/04/15 08:18:08;;;;;;;7.90;7.10;;;;;;;;;;5085752;28;24501;-47
2022/04/15 08:20:33;;;;;;;7.30;6.60;;;;;;;;;;5075417;28;26205;-47
2022/04/15 08:22:58;;;;;;;7.70;6.90;;;;;;;;;;5067109;28;24437;-47
2022/04/15 08:25:23;;;;;;;9.02;7.63;;;;;;;;;;5070834;28;24419;-47
2022/04/15 08:27:48;;;;;;;8.27;6.78;;;;;;;;;;5070003;28;24422;-47
2022/04/15 08:30:14;;;;;;;9.20;7.30;;;;;;;;;;5063852;28;24470;-47
2022/04/15 08:32:39;;;;;;;7.43;6.73;;;;;;;;;;5065896;28;24774;-46
2022/04/15 08:35:05;;;;;;;7.40;6.70;;;;;;;;;;5065947;28;24445;-47
2022/04/15 08:37:31;;;;;;;7.55;6.85;;;;;;;;;;5066292;28;24429;-47
2022/04/15 08:39:56;;;;;;;8.13;7.33;;;;;;;;;;5084252;28;24426;-46
2022/04/15 08:42:21;;;;;;;7.10;6.50;;;;;;;;;;5080550;28;24410;-47
2022/04/15 08:44:49;;;;;;;7.23;6.53;;;;;;;;;;5081964;28;24924;-47
2022/04/15 08:47:14;;;;;;;7.65;6.53;;;;;;;;;;5077732;28;24468;-46
2022/04/15 08:49:39;;;;;;;7.80;7.00;;;;;;;;;;5076579;28;24882;-46
2022/04/15 08:52:05;;;;;;;8.00;6.73;;;;;;;;;;5071340;28;24429;-46
2022/04/15 08:54:31;;;;;;;7.80;7.00;;;;;;;;;;5074828;28;25005;-46
2022/04/15 08:56:56;;;;;;;6.90;6.30;;;;;;;;;;5065338;28;24434;-46
2022/04/15 08:59:21;;;;;;;7.10;6.10;;;;;;;;;;5077431;28;24547;-46
2022/04/15 09:01:46;;;;;;;7.60;6.90;;;;;;;;;;5071261;28;24441;-46
2022/04/15 09:04:12;;;;;;;7.30;6.60;;;;;;;;;;5081524;28;25194;-47
2022/04/15 09:06:38;;;;;;;8.68;7.40;;;;;;;;;;5074619;28;24560;-47
2022/04/15 09:09:04;;;;;;;7.22;6.63;;;;;;;;;;5079972;28;24426;-47
2022/04/15 09:11:30;;;;;;;7.82;6.95;;;;;;;;;;5074380;28;24479;-45
2022/04/15 09:13:55;;;;;;;7.10;6.40;;;;;;;;;;5075081;28;24987;-46
2022/04/15 09:16:22;;;;;;;7.28;6.57;;;;;;;;;;5073299;28;24417;-46
2022/04/15 09:18:47;;;;;;;7.63;6.10;;;;;;;;;;5072878;28;24418;-46
2022/04/15 09:21:18;;;;;;;6.80;6.10;;;;;;;;;;5075338;28;24426;-46
2022/04/15 09:23:50;;;;;;;7.30;6.60;;;;;;;;;;5070444;28;24415;-45
2022/04/15 09:26:16;;;;;;;6.53;5.90;;;;;;;;;;5066346;28;24545;-46
2022/04/15 09:28:41;;;;;;;6.60;6.00;;;;;;;;;;5065646;28;24419;-46
2022/04/15 09:31:13;;;;;;;6.73;6.13;;;;;;;;;;5066092;28;24438;-46
2022/04/15 09:33:38;;;;;;;6.10;5.50;;;;;;;;;;5080656;28;24438;-46
2022/04/15 09:36:03;;;;;;;4.70;4.30;;;;;;;;;;5085472;28;24495;-47
2022/04/15 09:38:50;;;;;;;4.60;4.20;;;;;;;;;;5074145;28;24956;-46
2022/04/15 09:41:23;;;;;;;4.70;4.30;;;;;;;;;;5071926;28;24422;-46
2022/04/15 09:43:51;;;;;;;4.97;4.30;;;;;;;;;;5078025;28;24472;-46
2022/04/15 09:46:16;;;;;;;4.25;3.85;;;;;;;;;;5082609;28;24418;-47
2022/04/15 09:48:56;;;;;;;4.60;4.20;;;;;;;;;;5073739;28;24797;-47
2022/04/15 09:51:21;;;;;;;4.50;4.10;;;;;;;;;;5066292;28;24769;-47
2022/04/15 09:53:47;;;;;;;4.03;3.73;;;;;;;;;;5075177;28;25151;-47
2022/04/15 09:56:12;;;;;;;3.83;3.53;;;;;;;;;;5067370;28;24776;-47
2022/04/15 09:58:38;;;;;;;5.30;4.60;;;;;;;;;;5074698;28;24431;-48
2022/04/15 10:01:04;;;;;;;7.32;6.53;;;;;;;;;;5070789;28;24407;-46
2022/04/15 10:03:34;;;;;;;4.63;4.20;;;;;;;;;;5072012;28;25095;-47
2022/04/15 10:05:59;;;;;;;4.70;4.30;;;;;;;;;;5074552;28;24407;-47
2022/04/15 10:08:25;;;;;;;4.20;3.80;;;;;;;;;;5069135;28;24406;-47
2022/04/15 10:10:51;;;;;;;3.92;3.63;;;;;;;;;;5068344;28;24419;-47
2022/04/15 10:13:17;;;;;;;3.70;3.40;;;;;;;;;;5067646;28;24884;-47
2022/04/15 10:15:42;;;;;;;3.40;3.10;;;;;;;;;;5074336;28;24405;-46
2022/04/15 10:18:08;;;;;;;3.60;3.30;;;;;;;;;;5075619;28;24419;-47
2022/04/15 10:20:33;;;;;;;3.80;3.50;;;;;;;;;;5088053;28;24455;-47
2022/04/15 10:23:03;;;;;;;3.13;2.90;;;;;;;;;;5087958;28;24387;-47
2022/04/15 10:25:29;;;;;;;3.42;2.78;;;;;;;;;;5087660;28;24456;-47
2022/04/15 10:28:03;;;;;;;3.50;3.20;;;;;;;;;;5067694;28;24465;-47
2022/04/15 10:30:28;;;;;;;3.10;2.90;;;;;;;;;;5067626;28;24434;-47
2022/04/15 10:32:55;;;;;;;3.40;3.10;;;;;;;;;;5070307;28;24518;-47
2022/04/15 10:35:21;;;;;;;3.60;3.30;;;;;;;;;;5067500;28;24448;-47
2022/04/15 10:37:47;;;;;;;3.63;3.20;;;;;;;;;;5067796;28;24407;-51
2022/04/15 10:40:25;;;;;;;3.00;2.80;;;;;;;;;;5066847;28;24414;-47
2022/04/15 10:42:51;;;;;;;3.60;3.30;;;;;;;;;;5067297;28;24535;-47
2022/04/15 10:45:26;;;;;;;3.50;3.20;;;;;;;;;;5083727;28;25017;-47
2022/04/15 10:47:56;;;;;;;3.50;3.20;;;;;;;;;;5087536;28;24756;-47
2022/04/15 10:50:21;;;;;;;3.00;2.80;;;;;;;;;;5087275;28;24407;-47
2022/04/15 10:52:48;;;;;;;3.30;3.00;;;;;;;;;;5087098;28;24410;-47
2022/04/15 10:55:16;;;;;;;3.40;3.10;;;;;;;;;;5085685;28;24517;-47
2022/04/15 10:57:43;;;;;;;3.70;3.40;;;;;;;;;;5086989;28;25252;-47
2022/04/15 11:02:59;;;;;;;3.50;3.20;;;;;;;;;;5078521;28;24842;-47
2022/04/15 11:05:42;;;;;;;4.00;3.40;;;;;;;;;;5067040;28;24919;-47
2022/04/15 11:08:11;;;;;;;3.35;3.05;;;;;;;;;;5066505;28;24414;-46
2022/04/15 11:10:42;;;;;;;3.40;3.20;;;;;;;;;;5067073;28;24437;-46
2022/04/15 11:13:09;;;;;;;4.13;3.72;;;;;;;;;;5077822;28;24998;-46
2022/04/15 11:16:00;;;;;;;3.30;3.00;;;;;;;;;;5087214;28;24929;-47
2022/04/15 11:18:46;;;;;;;3.70;3.40;;;;;;;;;;5061027;28;24948;-47
2022/04/15 11:21:15;;;;;;;3.97;3.50;;;;;;;;;;5087065;28;24398;-47
2022/04/15 11:23:40;;;;;;;3.50;3.20;;;;;;;;;;5084762;28;24457;-47
2022/04/15 11:26:06;;;;;;;4.20;3.90;;;;;;;;;;5086775;28;24393;-47
2022/04/15 11:28:31;;;;;;;3.50;3.20;;;;;;;;;;5087304;28;24594;-46
2022/04/15 11:30:56;;;;;;;3.00;2.80;;;;;;;;;;5086312;28;24491;-47
2022/04/15 11:33:21;;;;;;;3.30;3.10;;;;;;;;;;5086578;28;24967;-47
2022/04/15 11:35:46;;;;;;;3.60;3.30;;;;;;;;;;5085151;28;24406;-47
2022/04/15 11:38:12;;;;;;;3.60;3.30;;;;;;;;;;5087059;28;24586;-47
2022/04/15 11:40:38;;;;;;;3.53;3.23;;;;;;;;;;5086781;28;24959;-46
2022/04/15 11:43:06;;;;;;;4.40;3.60;;;;;;;;;;5086877;28;24413;-47
2022/04/15 11:45:35;;;;;;;3.92;3.63;;;;;;;;;;5085107;28;24769;-47
2022/04/15 11:48:20;;;;;;;3.85;3.55;;;;;;;;;;5086261;28;24463;-47
2022/04/15 11:50:46;;;;;;;3.60;3.30;;;;;;;;;;5086701;28;24394;-46
2022/04/15 11:53:13;;;;;;;3.40;3.10;;;;;;;;;;5085208;28;24473;-47
2022/04/15 11:56:01;;;;;;;4.00;3.70;;;;;;;;;;5082131;28;24972;-47
2022/04/15 11:58:33;;;;;;;3.65;3.35;;;;;;;;;;5075134;28;24430;-47
2022/04/15 12:00:59;;;;;;;3.40;3.20;;;;;;;;;;5063698;28;24440;-46
2022/04/15 12:03:25;;;;;;;5.60;3.45;;;;;;;;;;5075254;28;24865;-47
2022/04/15 12:05:51;;;;;;;4.10;3.70;;;;;;;;;;5081417;28;24430;-47
2022/04/15 12:08:17;;;;;;;3.90;3.60;;;;;;;;;;5084901;28;24448;-46
2022/04/15 12:10:42;;;;;;;3.63;3.33;;;;;;;;;;5086230;28;24750;-46
2022/04/15 12:13:08;;;;;;;3.30;3.00;;;;;;;;;;5075713;28;24991;-47
2022/04/15 12:15:34;;;;;;;2.70;2.50;;;;;;;;;;5066060;28;24464;-46
2022/04/15 12:17:59;;;;;;;3.00;2.60;;;;;;;;;;5071783;28;24534;-46
2022/04/15 12:20:25;;;;;;;3.10;2.90;;;;;;;;;;5064993;28;25048;-46
2022/04/15 12:22:50;;;;;;;3.20;3.00;;;;;;;;;;5065692;28;24777;-46
2022/04/15 12:25:16;;;;;;;3.20;3.00;;;;;;;;;;5064147;28;24776;-46
2022/04/15 12:27:44;;;;;;;3.20;2.90;;;;;;;;;;5065659;28;24480;-46
2022/04/15 12:30:10;;;;;;;2.90;2.70;;;;;;;;;;5063870;28;24514;-46
2022/04/15 12:32:35;;;;;;;3.00;2.80;;;;;;;;;;5065320;28;24517;-46
2022/04/15 12:35:00;;;;;;;3.50;2.80;;;;;;;;;;5064396;28;24494;-46
2022/04/15 12:37:46;;;;;;;3.03;2.83;;;;;;;;;;5070081;28;24433;-46
2022/04/15 12:40:14;;;;;;;3.30;3.00;;;;;;;;;;5090324;28;24383;-46
2022/04/15 12:42:41;;;;;;;3.15;2.85;;;;;;;;;;5080146;28;24441;-46
2022/04/15 12:45:07;;;;;;;3.10;2.90;;;;;;;;;;5068371;28;24509;-47
2022/04/15 12:47:33;;;;;;;4.20;3.90;;;;;;;;;;5071124;28;24554;-47
2022/04/15 12:50:16;;;;;;;4.23;3.80;;;;;;;;;;5082516;28;24418;-46
2022/04/15 12:52:42;;;;;;;5.43;3.70;;;;;;;;;;5077607;28;24457;-46
2022/04/15 12:55:07;;;;;;;4.30;3.90;;;;;;;;;;5067443;28;25015;-47
2022/04/15 12:57:34;;;;;;;4.60;4.20;;;;;;;;;;5068013;28;24502;-47
2022/04/15 12:59:59;;;;;;;4.22;3.83;;;;;;;;;;5080369;28;24414;-46
2022/04/15 13:02:25;;;;;;;4.40;4.00;;;;;;;;;;5078329;28;24434;-45
2022/04/15 13:04:52;;;;;;;5.20;4.80;;;;;;;;;;5068422;28;24408;-47
2022/04/15 13:07:18;;;;;;;4.50;4.20;;;;;;;;;;5068779;28;24426;-47
2022/04/15 13:09:43;;;;;;;4.35;4.05;;;;;;;;;;5073935;28;24418;-46
2022/04/15 13:12:08;;;;;;;5.25;4.75;;;;;;;;;;5078468;28;24426;-47
2022/04/15 13:14:33;;;;;;;6.40;5.13;;;;;;;;;;5069510;28;24383;-47
2022/04/15 13:16:59;;;;;;;5.15;4.70;;;;;;;;;;5068385;28;24991;-46
2022/04/15 13:19:24;;;;;;;5.15;4.75;;;;;;;;;;5067103;28;24732;-46
2022/04/15 13:21:49;;;;;;;4.70;4.30;;;;;;;;;;5075832;28;24422;-46
2022/04/15 13:24:14;;;;;;;5.47;4.97;;;;;;;;;;5068225;28;24487;-47
2022/04/15 13:26:39;;;;;;;5.40;5.00;;;;;;;;;;5077635;28;24916;-47
2022/04/15 13:29:04;;;;;;;5.40;5.00;;;;;;;;;;5087201;28;24413;-50
2022/04/15 13:31:30;;;;;;;5.90;5.40;;;;;;;;;;5086341;28;24793;-46
2022/04/15 13:33:55;;;;;;;4.82;4.45;;;;;;;;;;5068763;28;25091;-47
2022/04/15 13:36:20;;;;;;;4.72;4.32;;;;;;;;;;5068896;28;24387;-46
2022/04/15 13:38:45;;;;;;;4.97;4.57;;;;;;;;;;5068619;28;24394;-47
2022/04/15 13:41:14;;;;;;;5.77;4.97;;;;;;;;;;5068625;28;24808;-47
2022/04/15 13:43:39;;;;;;;5.10;4.70;;;;;;;;;;5081775;28;24470;-46
2022/04/15 13:46:04;;;;;;;5.55;5.10;;;;;;;;;;5088980;28;24916;-46
2022/04/15 13:48:29;;;;;;;5.05;4.55;;;;;;;;;;5088764;28;24483;-46
2022/04/15 13:50:55;;;;;;;5.40;5.00;;;;;;;;;;5088557;28;24405;-46
2022/04/15 13:58:50;;;;;;;6.25;5.75;;;;;;;;;;5068292;28;24393;-47
2022/04/15 14:01:24;;;;;;;5.90;5.45;;;;;;;;;;5067952;28;24382;-47
2022/04/15 14:03:53;;;;;;;5.70;5.20;;;;;;;;;;5068652;28;24419;-47
2022/04/15 14:06:18;;;;;;;5.88;5.38;;;;;;;;;;5074910;28;24497;-47
2022/04/15 14:08:43;;;;;;;5.50;5.00;;;;;;;;;;5070702;28;25136;-47
2022/04/15 14:11:08;;;;;;;5.50;5.00;;;;;;;;;;5083454;28;24979;-47
2022/04/15 14:13:34;;;;;;;5.33;4.83;;;;;;;;;;5075167;28;24430;-46
2022/04/15 14:15:59;;;;;;;5.40;5.00;;;;;;;;;;5067538;28;24971;-47
2022/04/15 14:18:25;;;;;;;6.00;5.50;;;;;;;;;;5066866;28;24426;-47
2022/04/15 14:20:50;;;;;;;6.27;5.77;;;;;;;;;;5067007;28;24482;-47
2022/04/15 14:23:16;;;;;;;6.57;5.83;;;;;;;;;;5067286;28;24788;-46
2022/04/15 14:25:41;;;;;;;7.20;6.50;;;;;;;;;;5077600;28;24449;-47
2022/04/15 14:28:06;;;;;;;7.80;6.60;;;;;;;;;;5087708;28;24501;-47
2022/04/15 14:30:32;;;;;;;7.55;6.90;;;;;;;;;;5087564;28;24521;-46